Coila, Mississippi
Current Conditions -  °F | °C
As of 8:53 PM on Tuesday 25 Nov 2014 (Local Time) from KGWO Reporting Station
Clear Clear  
Wind Chill: 33°   Ceiling: Unl
Heat Index: 33°   Visibility: 10mi
Dew Point: 28°   Wind: 0mph
Humidity: 82%   Direction: NA
Pressure: 30.23"   Gusts: NA
Location:  33.4°N, 89.97°W
Report Text: KGWO 260253Z AUTO 00000KT 10SM CLR 01/M02 A3023 RMK AO2 SLP237 T00061022 53007 TSNO
Loading
Personal Weather Stations






























Interactive Weather Map New forecast layout! Learn more

10-Day Weather Forecast

Advertisements
Track Severe Weather on mobile